Nathaniel B. Palmer — WBP3210 — position and weather

sailwx.info

Track history (hours):
 
Tides and Currents Weather Stations Pressure Air Temp Water Temp Dewpoint Dewpoint Depression Visibility Wind Speed Wind Dir Waves Ship Positions

Oceanographic research ship Nathaniel B. Palmer (USA)

Contact: Ethan Norris, ethan.norris.contractor@usap.gov

Detailed information on ship capabilities available from University of Delaware's Ocean Information Center and ARCUS's ALIAS (Arctic Logistics Information and Support) project.

Owner: OFFSHORE SERVICE VESSELS, Cut Off, LA. More information available from US FCC via Universal Licensing System and Coast Guard Vessel Documentation Center.

Last reported at 2019-Aug-15 23:00 UTC. Time now 2019-Aug-20 10:12 UTC.
Position S 53°06' W 070°54'.

Type: Other ship. MMSI: 366610000.

Wind from 280 at 13 knots

Barometer 1011.8 mb
Air temperature 4.0 ° C
Water temperature -0.0 ° C

Date/timePositionNaut miles runAvg speedWind from/ knotsBaromVisibWave heightAir tempDewpointWater temp
2019-Aug-15 23:00S 53°06' W 070°54'0 0.0 280 / 131011.8 4.0 -0.0
2019-Aug-15 22:00S 53°06' W 070°54'0 0.0 280 / 131011.4 4.1 -0.0
2019-Aug-15 21:00S 53°06' W 070°54'0 0.0 280 / 141011.4 5.3 -0.0
2019-Aug-15 20:00S 53°06' W 070°54'0 0.0 270 / 121011.5 6.1 -0.0
2019-Aug-15 19:00S 53°06' W 070°54'0 0.0 270 / 121011.8 6.1 -0.0
2019-Aug-15 18:00S 53°06' W 070°54'0 0.0 270 / 111012.4 5.5 -0.0
2019-Aug-15 17:00S 53°06' W 070°54'0 0.0 280 / 101013.1 5.1 -0.0
2019-Aug-15 16:00S 53°06' W 070°54'0 0.0 280 / 91013.4 4.0 -0.0
2019-Aug-15 15:00S 53°06' W 070°54'0 0.0 260 / 81013.7 3.5 -0.0
2019-Aug-15 14:00S 53°06' W 070°54'0 0.0 260 / 61013.9 3.7 -0.0
2019-Aug-15 13:00S 53°06' W 070°54'0 0.0 290 / 71014.4 1.7 -0.0
2019-Aug-15 12:00S 53°06' W 070°54'0 0.0 250 / 41014.7 0.5 -0.0
2019-Aug-15 11:00S 53°06' W 070°54'0 0.0 310 / 31014.9 0.3 -0.0
2019-Aug-15 10:00S 53°06' W 070°54'0 0.0 270 / 31015.4 -0.2 -0.0
2019-Aug-15 09:00S 53°06' W 070°54'0 0.0 290 / 21015.8 0.3 -0.0
2019-Aug-15 08:00S 53°06' W 070°54'0 0.0 210 / 21016.6 1.1 -0.0
2019-Aug-15 07:00S 53°06' W 070°54'0 0.0 280 / 21017.5 0.3 -0.0
2019-Aug-15 06:00S 53°06' W 070°54'0 0.0 290 / 31018.2 1.4 -0.0
2019-Aug-15 05:00S 53°06' W 070°54'0 0.0 260 / 41018.8 1.0 -0.0
2019-Aug-15 04:00S 53°06' W 070°54'0 0.0 260 / 31019.4 0.3 -0.0
2019-Aug-15 03:00S 53°06' W 070°54'0 0.0 260 / 31020.0 1.2 -0.0
2019-Aug-15 02:00S 53°06' W 070°54'0 0.0 260 / 41020.4 1.3 -0.0
2019-Aug-15 01:00S 53°06' W 070°54'0 0.0 300 / 11020.8 1.8 -0.0
2019-Aug-15 00:00S 53°06' W 070°54'0 0.0 290 / 41021.0 2.0 -0.0
2019-Aug-14 23:00S 53°06' W 070°54'0 0.0 240 / 51021.1 3.4 -0.0
2019-Aug-14 22:00S 53°06' W 070°54'0 0.0 210 / 51020.8 5.1 -0.0
2019-Aug-14 21:00S 53°06' W 070°54'0 0.0 250 / 61020.7 5.8 -0.0
2019-Aug-14 20:00S 53°06' W 070°54'0 0.0 190 / 111020.6 6.1 -0.0
2019-Aug-14 19:00S 53°06' W 070°54'0 0.0 210 / 121020.5 6.2 -0.0
2019-Aug-14 00:00S 53°06' W 070°54'0 0.0 030 / 121017.9 2.8 -0.0
2019-Aug-13 23:00S 53°06' W 070°54'0 0.0 1018.7 3.2 -0.0
2019-Aug-13 22:00S 53°06' W 070°54'0 0.0 340 / 91019.4 3.3 -0.0
2019-Aug-13 21:00S 53°06' W 070°54'0 0.0 330 / 101020.2 3.5 -0.0
2019-Aug-13 20:00S 53°06' W 070°54'0 0.0 310 / 91021.1 3.8 -0.0
2019-Aug-13 19:00S 53°06' W 070°54'0 0.0 300 / 111021.6 3.7 -0.0
2019-Aug-13 18:00S 53°06' W 070°54'0 0.0 300 / 81022.4 3.6 -0.0
2019-Aug-13 17:00S 53°06' W 070°54'0 0.0 010 / 71023.3 3.3 -0.0
2019-Aug-13 16:00S 53°06' W 070°54'0 0.0 030 / 81024.1 3.0 -0.0
2019-Aug-13 15:00S 53°06' W 070°54'0 0.0 030 / 81024.4 2.6 -0.0
2019-Aug-13 14:00S 53°06' W 070°54'0 0.0 020 / 71024.8 2.4 -0.0
2019-Aug-13 13:00S 53°06' W 070°54'0 0.0 020 / 61025.2 2.6 -0.0
2019-Aug-13 12:00S 53°06' W 070°54'0 0.0 300 / 41025.6 3.0 -0.0
2019-Aug-13 11:00S 53°06' W 070°54'0 0.0 280 / 61026.2 2.5 -0.0
2019-Aug-13 10:00S 53°06' W 070°54'0 0.0 300 / 31026.5 2.1 -0.0
2019-Aug-13 09:00S 53°06' W 070°54'0 0.0 250 / 21026.7 2.2 -0.0
2019-Aug-13 08:00S 53°06' W 070°54'0 0.0 240 / 41027.4 2.0 -0.0
2019-Aug-13 07:00S 53°06' W 070°54'0 0.0 280 / 41027.5 1.4 -0.0
2019-Aug-13 06:00S 53°06' W 070°54'0 0.0 310 / 21027.9 1.2 -0.0
2019-Aug-13 05:00S 53°06' W 070°54'0 0.0 260 / 61028.3 1.4 -0.0
2019-Aug-13 04:00S 53°06' W 070°54'0 0.0 280 / 71028.6 1.2 -0.0
2019-Aug-13 03:00S 53°06' W 070°54'0 0.0 300 / 71028.6 1.2 -0.0
2019-Aug-13 02:00S 53°06' W 070°54'0 0.0 290 / 61028.5 1.1 -0.0
2019-Aug-13 01:00S 53°06' W 070°54'0 0.0 260 / 91028.4 1.4 -0.0
2019-Aug-13 00:00S 53°06' W 070°54'0 0.0 260 / 61028.7 1.5 -0.0
2019-Aug-12 23:00S 53°06' W 070°54'0 0.0 250 / 41028.6 1.3 -0.0
2019-Aug-12 22:00S 53°06' W 070°54'0 0.0 240 / 61028.5 2.0 -0.0
2019-Aug-12 21:00S 53°06' W 070°54'0 0.0 220 / 91028.2 3.0 -0.0
2019-Aug-12 20:00S 53°06' W 070°54'0 0.0 210 / 111027.8 4.2 -0.0
2019-Aug-12 19:00S 53°06' W 070°54'0 0.0 210 / 41027.8 5.9 -0.0
2019-Aug-12 18:00S 53°06' W 070°54'0 0.0 220 / 51028.2 4.5 -0.0
2019-Aug-12 17:00S 53°06' W 070°54'0 0.0 080 / 21028.6 3.1 -0.0
2019-Aug-12 16:00S 53°06' W 070°54'0 0.0 130 / 11028.6 3.2 -0.0
2019-Aug-12 15:00S 53°06' W 070°54'0 0.0 330 / 21028.6 3.1 -0.0
2019-Aug-12 14:00S 53°06' W 070°54'0 0.0 280 / 21028.7 2.0 -0.0
2019-Aug-12 13:00S 53°06' W 070°54'0 0.0 280 / 51028.5 -1.1 -0.0
2019-Aug-12 12:00S 53°06' W 070°54'0 0.0 270 / 31028.1 -1.6 -0.0
2019-Aug-12 11:00S 53°06' W 070°54'0 0.0 270 / 31028.1 -1.3 -0.0
2019-Aug-12 10:00S 53°06' W 070°54'0 0.0 270 / 21028.1 -1.2 -0.0
2019-Aug-12 09:00S 53°06' W 070°54'0 0.0 280 / 41028.0 -1.4 -0.0
2019-Aug-12 08:00S 53°06' W 070°54'0 0.0 280 / 51028.1 -1.3 -0.0
2019-Aug-12 07:00S 53°06' W 070°54'0 0.0 270 / 71028.0 -0.6 -0.0
2019-Aug-12 06:00S 53°06' W 070°54'0 0.0 270 / 71027.8 -0.6 -0.0
2019-Aug-12 05:00S 53°06' W 070°54'0 0.0 270 / 91027.6 0.1 -0.0
2019-Aug-12 04:00S 53°06' W 070°54'0 0.0 270 / 91027.4 -0.0 -0.0
2019-Aug-12 03:00S 53°06' W 070°54'0 0.0 270 / 91027.1 -0.0 -0.0
2019-Aug-12 02:00S 53°06' W 070°54'0 0.0 270 / 81026.6 -0.0 -0.0
2019-Aug-12 01:00S 53°06' W 070°54'0 0.0 260 / 61026.2 0.2 -0.0
2019-Aug-12 00:00S 53°06' W 070°54'0 0.0 260 / 61025.7 0.4 -0.0
2019-Aug-11 23:00S 53°06' W 070°54'0 0.0 240 / 71025.0 1.0 -0.0
2019-Aug-11 22:00S 53°06' W 070°54'0 0.0 230 / 71024.3 1.7 -0.0
2019-Aug-11 21:00S 53°06' W 070°54'0 0.0 200 / 171023.3 2.9 -0.0
2019-Aug-11 20:00S 53°06' W 070°54'0 0.0 200 / 171022.5 3.3 -0.0
2019-Aug-11 19:00S 53°06' W 070°54'0 0.0 190 / 161021.8 3.4 -0.0
2019-Aug-11 18:00S 53°06' W 070°54'0 0.0 190 / 181021.4 3.7 -0.0
2019-Aug-11 17:00S 53°06' W 070°54'0 0.0 200 / 161021.0 3.8 -0.0
2019-Aug-11 16:00S 53°06' W 070°54'0 0.0 210 / 141020.2 3.1 -0.0
2019-Aug-11 15:00S 53°06' W 070°54'0 0.0 210 / 131019.5 2.5 -0.0
2019-Aug-11 14:00S 53°06' W 070°54'0 0.0 230 / 71019.0 0.6 -0.0
2019-Aug-11 13:00S 53°06' W 070°54'0 0.0 240 / 71018.2 -0.0 -0.0
2019-Aug-11 12:00S 53°06' W 070°54'0 0.0 250 / 71017.5 -0.1 -0.0
2019-Aug-11 11:00S 53°06' W 070°54'0 0.0 250 / 81016.8 -0.4 -0.0
2019-Aug-11 10:00S 53°06' W 070°54'0 0.0 250 / 81016.2 -0.4 -0.0
2019-Aug-11 09:00S 53°06' W 070°54'0 0.0 250 / 81015.2 -0.2 -0.0
2019-Aug-11 08:00S 53°06' W 070°54'0 0.0 240 / 91014.2 0.1 -0.0
2019-Aug-11 07:00S 53°06' W 070°54'0 0.0 210 / 171013.0 1.0 -0.0
2019-Aug-11 06:00S 53°06' W 070°54'0 0.0 220 / 151011.9 0.7 -0.0
2019-Aug-11 05:00S 53°06' W 070°54'0 0.0 210 / 141011.0 1.6 -0.0
2019-Aug-11 04:00S 53°06' W 070°54'0 0.0 240 / 81009.8 1.4 -0.0
2019-Aug-11 03:00S 53°06' W 070°54'0 0.0 260 / 81009.0 1.3 -0.0
2019-Aug-11 02:00S 53°06' W 070°54'0 0.0 270 / 101008.7 1.0 -0.0
2019-Aug-11 01:00S 53°06' W 070°54'0 0.0 270 / 131008.7 0.7 -0.0
2019-Aug-11 00:00S 53°06' W 070°54'0 0.0 260 / 91008.7 0.6 -0.0
2019-Aug-10 23:00S 53°06' W 070°54'0 0.0 260 / 71008.6 0.6 -0.0
2019-Aug-10 22:00S 53°06' W 070°54'0 0.0 260 / 61008.6 1.0 -0.0
2019-Aug-10 21:00S 53°06' W 070°54'0 0.0 250 / 81008.1 1.3 -0.0
2019-Aug-10 20:00S 53°06' W 070°54'0 0.0 250 / 101007.6 1.6 -0.0
2019-Aug-10 19:00S 53°06' W 070°54'0 0.0 250 / 121007.3 1.2 -0.0
2019-Aug-10 18:00S 53°06' W 070°54'0 0.0 240 / 141006.9 1.7 -0.0
2019-Aug-10 17:00S 53°06' W 070°54'0 0.0 230 / 151006.7 1.9 -0.0
2019-Aug-10 16:00S 53°06' W 070°54'0 0.0 220 / 151006.6 2.1 -0.0
2019-Aug-10 15:00S 53°06' W 070°54'0 0.0 220 / 171006.0 1.5 -0.0
2019-Aug-10 14:00S 53°06' W 070°54'0 0.0 210 / 121005.7 1.0 -0.0
2019-Aug-10 13:00S 53°06' W 070°54'0 0.0 220 / 121005.0 -0.0 -0.0
2019-Aug-10 12:00S 53°06' W 070°54'0 0.0 230 / 191003.7 0.1 -0.0
2019-Aug-10 11:00S 53°06' W 070°54'0 0.0 220 / 201002.8 0.2 -0.0
2019-Aug-10 10:00S 53°06' W 070°54'0 0.0 220 / 181001.7 0.7 -0.0
2019-Aug-10 09:00S 53°06' W 070°54'0 0.0 220 / 161001.1 1.2 -0.0
2019-Aug-10 08:00S 53°06' W 070°54'0 0.0 210 / 141000.6 2.0 -0.0
2019-Aug-10 07:00S 53°06' W 070°54'0 0.0 200 / 181000.5 2.4 -0.0
2019-Aug-10 06:00S 53°06' W 070°54'0 0.0 210 / 121000.6 2.8 -0.0
2019-Aug-10 05:00S 53°06' W 070°54'0 0.0 230 / 111000.0 2.8 -0.0
2019-Aug-10 04:00S 53°06' W 070°54'0 0.0 240 / 13999.8 2.9 -0.0
2019-Aug-10 03:00S 53°06' W 070°54'0 0.0 240 / 14999.4 3.2 -0.0
2019-Aug-10 02:00S 53°06' W 070°54'0 0.0 240 / 11999.1 3.4 -0.0
2019-Aug-10 01:00S 53°06' W 070°54'0 0.0 240 / 13998.8 3.8 -0.0
2019-Aug-10 00:00S 53°06' W 070°54'0 0.0 240 / 15998.6 4.0 -0.0
2019-Aug-09 23:00S 53°06' W 070°54'0 0.0 250 / 12998.5 4.3 -0.0
2019-Aug-09 22:00S 53°06' W 070°54'0 0.0 250 / 11998.4 5.0 -0.0
2019-Aug-09 21:00S 53°06' W 070°54'0 0.0 240 / 9998.2 6.1 -0.0
2019-Aug-09 20:00S 53°06' W 070°54'0 0.0 260 / 7997.9 6.7 -0.0
2019-Aug-09 19:00S 53°06' W 070°54'0 0.0 240 / 13997.1 6.8 -0.0
2019-Aug-09 18:00S 53°06' W 070°54'0 0.0 240 / 16996.9 6.8 -0.0
2019-Aug-09 17:00S 53°06' W 070°54'0 0.0 250 / 15996.8 6.9 -0.0
2019-Aug-09 16:00S 53°06' W 070°54'0 0.0 260 / 15996.9 6.7 -0.0
2019-Aug-09 15:00S 53°06' W 070°54'0 0.0 270 / 10996.7 6.7 -0.0
2019-Aug-09 14:00S 53°06' W 070°54'0 0.0 260 / 4996.3 6.9 -0.0
2019-Aug-09 13:00S 53°06' W 070°54'0 0.0 210 / 2995.3 5.6 -0.0
2019-Aug-09 12:00S 53°06' W 070°54'0 0.0 250 / 7994.4 5.5 -0.0
2019-Aug-09 11:00S 53°06' W 070°54'0 0.0 270 / 8993.8 5.4 -0.0
2019-Aug-09 10:00S 53°06' W 070°54'0 0.0 260 / 10993.4 5.8 -0.0
2019-Aug-09 09:00S 53°06' W 070°54'0 0.0 260 / 16992.3 6.4 -0.0
2019-Aug-09 08:00S 53°06' W 070°54'0 0.0 270 / 21991.6 7.0 -0.0
2019-Aug-09 07:00S 53°06' W 070°54'0 0.0 350 / 8992.1 6.0 -0.0
2019-Aug-09 06:00S 53°06' W 070°54'0 0.0 340 / 9992.2 5.4 -0.0
2019-Aug-09 05:00S 53°06' W 070°54'0 0.0 330 / 15992.8 5.7 -0.0
2019-Aug-09 04:00S 53°06' W 070°54'0 0.0 300 / 19992.7 5.8 -0.0
2019-Aug-09 03:00S 53°06' W 070°54'0 0.0 290 / 24992.2 5.8 -0.0
2019-Aug-09 02:00S 53°06' W 070°54'0 0.0 290 / 36990.8 6.2 -0.0
2019-Aug-09 01:00S 53°06' W 070°54'0 0.0 290 / 38991.1 6.2 -0.0
2019-Aug-09 00:00S 53°06' W 070°54'0 0.0 290 / 38992.6 6.7 -0.0
2019-Aug-08 23:00S 53°06' W 070°54'0 0.0 280 / 31994.3 7.2 -0.0
2019-Aug-08 22:00S 53°06' W 070°54'0 0.0 260 / 8997.2 7.2 -0.0
2019-Aug-08 21:00S 53°06' W 070°54'0 0.0 060 / 4998.9 7.7 -0.0
2019-Aug-08 20:00S 53°06' W 070°54'0 0.0 280 / 61000.1 7.5 -0.0
2019-Aug-08 19:00S 53°06' W 070°54'0 0.0 290 / 141001.4 7.1 -0.0
2019-Aug-08 18:00S 53°06' W 070°54'0 0.0 310 / 121003.4 7.1 -0.0
2019-Aug-08 17:00S 53°06' W 070°54'0 0.0 350 / 121005.5 6.6 -0.0
2019-Aug-08 16:00S 53°06' W 070°54'0 0.0 330 / 111007.2 6.1 -0.0
2019-Aug-08 15:00S 53°06' W 070°54'0 0.0 010 / 101008.7 5.5 -0.0
2019-Aug-08 14:00S 53°06' W 070°54'0 0.0 320 / 131009.5 5.2 -0.0
2019-Aug-08 13:00S 53°06' W 070°54'0 0.0 320 / 151010.1 4.9 -0.0
2019-Aug-08 12:00S 53°06' W 070°54'0 0.0 310 / 121010.8 4.9 -0.0
2019-Aug-08 11:00S 53°06' W 070°54'0 0.0 290 / 171011.0 5.3 -0.0
2019-Aug-08 10:00S 53°06' W 070°54'0 0.0 280 / 251010.6 6.0 -0.0
2019-Aug-08 09:00S 53°06' W 070°54'0 0.0 270 / 191011.1 5.7 -0.0
2019-Aug-08 08:00S 53°06' W 070°54'0 0.0 260 / 61012.1 5.0 -0.0
2019-Aug-08 07:00S 53°06' W 070°54'0 0.0 010 / 51012.9 4.8 -0.0
2019-Aug-08 06:00S 53°06' W 070°54'0 0.0 020 / 61013.3 4.4 -0.0
2019-Aug-08 05:00S 53°06' W 070°54'0 0.0 260 / 111013.0 4.1 -0.0
2019-Aug-08 04:00S 53°06' W 070°54'0 0.0 270 / 211012.2 4.0 -0.0
2019-Aug-08 03:00S 53°06' W 070°54'0 0.0 260 / 141012.9 3.9 -0.0
2019-Aug-08 02:00S 53°06' W 070°54'0 0.0 260 / 111012.6 3.7 -0.0
2019-Aug-08 01:00S 53°06' W 070°54'0 0.0 250 / 101011.9 3.7 -0.0
2019-Aug-08 00:00S 53°06' W 070°54'0 0.0 250 / 141010.9 3.7 -0.0
2019-Aug-07 23:00S 53°06' W 070°54'0 0.0 260 / 151010.0 3.5 -0.0
2019-Aug-07 22:00S 53°06' W 070°54'0 0.0 260 / 161009.3 3.4 -0.0
2019-Aug-07 21:00S 53°06' W 070°54'0 0.0 260 / 211008.3 3.5 -0.0
2019-Aug-07 20:00S 53°06' W 070°54'0 0.0 260 / 221007.2 3.5 -0.0
2019-Aug-07 19:00S 53°06' W 070°54'0 0.0 260 / 231006.3 3.5 -0.0
2019-Aug-07 18:00S 53°06' W 070°54'0 0.0 260 / 251005.6 3.6 -0.0
2019-Aug-07 17:00S 53°06' W 070°54'0 0.0 260 / 231004.9 3.8 -0.0
2019-Aug-07 16:00S 53°06' W 070°54'0 0.0 260 / 221004.3 4.1 -0.0
2019-Aug-07 15:00S 53°06' W 070°54'0 0.0 260 / 211003.8 4.2 -0.0
2019-Aug-07 14:00S 53°06' W 070°54'0 0.0 260 / 161003.8 3.6 -0.0
2019-Aug-07 13:00S 53°06' W 070°54'0 0.0 260 / 181003.4 3.0 -0.0
2019-Aug-07 12:00S 53°06' W 070°54'0 0.0 260 / 171003.1 2.7 -0.0
2019-Aug-07 11:00S 53°06' W 070°54'0 0.0 260 / 161003.3 2.4 -0.0
2019-Aug-07 10:00S 53°06' W 070°54'0 0.0 260 / 121003.6 2.3 -0.0
2019-Aug-07 09:00S 53°06' W 070°54'0 0.0 250 / 131003.6 2.3 -0.0
2019-Aug-07 08:00S 53°06' W 070°54'0 0.0 260 / 161003.4 2.1 -0.0
2019-Aug-07 07:00S 53°06' W 070°54'0 0.0 260 / 101003.7 1.8 -0.0
2019-Aug-07 06:00S 53°06' W 070°54'0 0.0 260 / 121003.4 1.7 -0.0
2019-Aug-07 05:00S 53°06' W 070°54'0 0.0 260 / 131002.7 1.5 -0.0
2019-Aug-07 03:00S 53°06' W 070°54'0 0.0 260 / 101001.4 0.8 -0.0
2019-Aug-07 02:00S 53°06' W 070°54'0 0.0 260 / 131000.5 0.8 -0.0
2019-Aug-07 01:00S 53°06' W 070°54'0 0.0 260 / 11999.5 0.3 -0.0
2019-Aug-07 00:00S 53°06' W 070°54'0 0.0 270 / 16998.2 0.3 -0.0
2019-Aug-06 23:00S 53°06' W 070°54'0 0.0 260 / 17996.8 0.6 -0.0
2019-Aug-06 22:00S 53°06' W 070°54'0 0.0 260 / 13995.1 0.8 -0.0
2019-Aug-06 21:00S 53°06' W 070°54'0 0.0 250 / 14993.4 1.1 -0.0
2019-Aug-06 20:00S 53°06' W 070°54'0 0.0 270 / 18991.2 1.2 -0.0
2019-Aug-06 19:00S 53°06' W 070°54'0 0.0 270 / 16990.3 1.2 -0.0
2019-Aug-06 18:00S 53°06' W 070°54'0 0.0 280 / 17989.7 1.1 -0.0
2019-Aug-06 17:00S 53°06' W 070°54'0 0.0 280 / 17989.8 0.6 -0.0
2019-Aug-06 16:00S 53°06' W 070°54'0 0.0 290 / 23989.4 1.0 -0.0
2019-Aug-06 15:00S 53°06' W 070°54'0 0.0 280 / 23989.2 1.4 -0.0
2019-Aug-06 14:00S 53°06' W 070°54'0 0.0 280 / 23989.4 0.9 -0.0
2019-Aug-06 13:00S 53°06' W 070°54'0 0.0 280 / 24989.4 0.5 -0.0
2019-Aug-06 12:00S 53°06' W 070°54'0 0.0 290 / 14989.7 -0.0 -0.0
2019-Aug-06 11:00S 53°06' W 070°54'0 0.0 280 / 18989.3 0.3 -0.0
2019-Aug-06 03:00S 53°06' W 070°54'0 0.0 270 / 13986.1 1.7 -0.0
2019-Aug-06 02:00S 53°06' W 070°54'0 0.0 270 / 13985.5 1.8 -0.0
2019-Aug-06 01:00S 53°06' W 070°54'0 0.0 280 / 20985.0 2.1 -0.0
2019-Aug-06 00:00S 53°06' W 070°54'0 0.0 280 / 20984.6 2.5 -0.0
2019-Aug-05 23:00S 53°06' W 070°54'   290 / 16984.6 2.6 -0.0
Track history (hours):
 
Tides and Currents Weather Stations Pressure Air Temp Water Temp Dewpoint Dewpoint Depression Visibility Wind Speed Wind Dir Waves Ship Positions

Oceanographic research ship Nathaniel B. Palmer (USA)

Contact: Ethan Norris, ethan.norris.contractor@usap.gov

Detailed information on ship capabilities available from University of Delaware's Ocean Information Center and ARCUS's ALIAS (Arctic Logistics Information and Support) project.

Owner: OFFSHORE SERVICE VESSELS, Cut Off, LA. More information available from US FCC via Universal Licensing System and Coast Guard Vessel Documentation Center.

Last reported at 2019-Aug-15 23:00 UTC. Time now 2019-Aug-20 10:12 UTC.
Position S 53°06' W 070°54'.

Type: Other ship. MMSI: 366610000.

Wind from 280 at 13 knots

Barometer 1011.8 mb
Air temperature 4.0 ° C
Water temperature -0.0 ° C

Date/timePositionNaut miles runAvg speedWind from/ knotsBaromVisibWave heightAir tempDewpointWater temp
2019-Aug-15 23:00S 53°06' W 070°54'0 0.0 280 / 131011.8 4.0 -0.0
2019-Aug-15 22:00S 53°06' W 070°54'0 0.0 280 / 131011.4 4.1 -0.0
2019-Aug-15 21:00S 53°06' W 070°54'0 0.0 280 / 141011.4 5.3 -0.0
2019-Aug-15 20:00S 53°06' W 070°54'0 0.0 270 / 121011.5 6.1 -0.0
2019-Aug-15 19:00S 53°06' W 070°54'0 0.0 270 / 121011.8 6.1 -0.0
2019-Aug-15 18:00S 53°06' W 070°54'0 0.0 270 / 111012.4 5.5 -0.0
2019-Aug-15 17:00S 53°06' W 070°54'0 0.0 280 / 101013.1 5.1 -0.0
2019-Aug-15 16:00S 53°06' W 070°54'0 0.0 280 / 91013.4 4.0 -0.0
2019-Aug-15 15:00S 53°06' W 070°54'0 0.0 260 / 81013.7 3.5 -0.0
2019-Aug-15 14:00S 53°06' W 070°54'0 0.0 260 / 61013.9 3.7 -0.0
2019-Aug-15 13:00S 53°06' W 070°54'0 0.0 290 / 71014.4 1.7 -0.0
2019-Aug-15 12:00S 53°06' W 070°54'0 0.0 250 / 41014.7 0.5 -0.0
2019-Aug-15 11:00S 53°06' W 070°54'0 0.0 310 / 31014.9 0.3 -0.0
2019-Aug-15 10:00S 53°06' W 070°54'0 0.0 270 / 31015.4 -0.2 -0.0
2019-Aug-15 09:00S 53°06' W 070°54'0 0.0 290 / 21015.8 0.3 -0.0
2019-Aug-15 08:00S 53°06' W 070°54'0 0.0 210 / 21016.6 1.1 -0.0
2019-Aug-15 07:00S 53°06' W 070°54'0 0.0 280 / 21017.5 0.3 -0.0
2019-Aug-15 06:00S 53°06' W 070°54'0 0.0 290 / 31018.2 1.4 -0.0
2019-Aug-15 05:00S 53°06' W 070°54'0 0.0 260 / 41018.8 1.0 -0.0
2019-Aug-15 04:00S 53°06' W 070°54'0 0.0 260 / 31019.4 0.3 -0.0
2019-Aug-15 03:00S 53°06' W 070°54'0 0.0 260 / 31020.0 1.2 -0.0
2019-Aug-15 02:00S 53°06' W 070°54'0 0.0 260 / 41020.4 1.3 -0.0
2019-Aug-15 01:00S 53°06' W 070°54'0 0.0 300 / 11020.8 1.8 -0.0
2019-Aug-15 00:00S 53°06' W 070°54'0 0.0 290 / 41021.0 2.0 -0.0
2019-Aug-14 23:00S 53°06' W 070°54'0 0.0 240 / 51021.1 3.4 -0.0
2019-Aug-14 22:00S 53°06' W 070°54'0 0.0 210 / 51020.8 5.1 -0.0
2019-Aug-14 21:00S 53°06' W 070°54'0 0.0 250 / 61020.7 5.8 -0.0
2019-Aug-14 20:00S 53°06' W 070°54'0 0.0 190 / 111020.6 6.1 -0.0
2019-Aug-14 19:00S 53°06' W 070°54'0 0.0 210 / 121020.5 6.2 -0.0
2019-Aug-14 00:00S 53°06' W 070°54'0 0.0 030 / 121017.9 2.8 -0.0
2019-Aug-13 23:00S 53°06' W 070°54'0 0.0 1018.7 3.2 -0.0
2019-Aug-13 22:00S 53°06' W 070°54'0 0.0 340 / 91019.4 3.3 -0.0
2019-Aug-13 21:00S 53°06' W 070°54'0 0.0 330 / 101020.2 3.5 -0.0
2019-Aug-13 20:00S 53°06' W 070°54'0 0.0 310 / 91021.1 3.8 -0.0
2019-Aug-13 19:00S 53°06' W 070°54'0 0.0 300 / 111021.6 3.7 -0.0
2019-Aug-13 18:00S 53°06' W 070°54'0 0.0 300 / 81022.4 3.6 -0.0
2019-Aug-13 17:00S 53°06' W 070°54'0 0.0 010 / 71023.3 3.3 -0.0
2019-Aug-13 16:00S 53°06' W 070°54'0 0.0 030 / 81024.1 3.0 -0.0
2019-Aug-13 15:00S 53°06' W 070°54'0 0.0 030 / 81024.4 2.6 -0.0
2019-Aug-13 14:00S 53°06' W 070°54'0 0.0 020 / 71024.8 2.4 -0.0
2019-Aug-13 13:00S 53°06' W 070°54'0 0.0 020 / 61025.2 2.6 -0.0
2019-Aug-13 12:00S 53°06' W 070°54'0 0.0 300 / 41025.6 3.0 -0.0
2019-Aug-13 11:00S 53°06' W 070°54'0 0.0 280 / 61026.2 2.5 -0.0
2019-Aug-13 10:00S 53°06' W 070°54'0 0.0 300 / 31026.5 2.1 -0.0
2019-Aug-13 09:00S 53°06' W 070°54'0 0.0 250 / 21026.7 2.2 -0.0
2019-Aug-13 08:00S 53°06' W 070°54'0 0.0 240 / 41027.4 2.0 -0.0
2019-Aug-13 07:00S 53°06' W 070°54'0 0.0 280 / 41027.5 1.4 -0.0
2019-Aug-13 06:00S 53°06' W 070°54'0 0.0 310 / 21027.9 1.2 -0.0
2019-Aug-13 05:00S 53°06' W 070°54'0 0.0 260 / 61028.3 1.4 -0.0
2019-Aug-13 04:00S 53°06' W 070°54'0 0.0 280 / 71028.6 1.2 -0.0
2019-Aug-13 03:00S 53°06' W 070°54'0 0.0 300 / 71028.6 1.2 -0.0
2019-Aug-13 02:00S 53°06' W 070°54'0 0.0 290 / 61028.5 1.1 -0.0
2019-Aug-13 01:00S 53°06' W 070°54'0 0.0 260 / 91028.4 1.4 -0.0
2019-Aug-13 00:00S 53°06' W 070°54'0 0.0 260 / 61028.7 1.5 -0.0
2019-Aug-12 23:00S 53°06' W 070°54'0 0.0 250 / 41028.6 1.3 -0.0
2019-Aug-12 22:00S 53°06' W 070°54'0 0.0 240 / 61028.5 2.0 -0.0
2019-Aug-12 21:00S 53°06' W 070°54'0 0.0 220 / 91028.2 3.0 -0.0
2019-Aug-12 20:00S 53°06' W 070°54'0 0.0 210 / 111027.8 4.2 -0.0
2019-Aug-12 19:00S 53°06' W 070°54'0 0.0 210 / 41027.8 5.9 -0.0
2019-Aug-12 18:00S 53°06' W 070°54'0 0.0 220 / 51028.2 4.5 -0.0
2019-Aug-12 17:00S 53°06' W 070°54'0 0.0 080 / 21028.6 3.1 -0.0
2019-Aug-12 16:00S 53°06' W 070°54'0 0.0 130 / 11028.6 3.2 -0.0
2019-Aug-12 15:00S 53°06' W 070°54'0 0.0 330 / 21028.6 3.1 -0.0
2019-Aug-12 14:00S 53°06' W 070°54'0 0.0 280 / 21028.7 2.0 -0.0
2019-Aug-12 13:00S 53°06' W 070°54'0 0.0 280 / 51028.5 -1.1 -0.0
2019-Aug-12 12:00S 53°06' W 070°54'0 0.0 270 / 31028.1 -1.6 -0.0
2019-Aug-12 11:00S 53°06' W 070°54'0 0.0 270 / 31028.1 -1.3 -0.0
2019-Aug-12 10:00S 53°06' W 070°54'0 0.0 270 / 21028.1 -1.2 -0.0
2019-Aug-12 09:00S 53°06' W 070°54'0 0.0 280 / 41028.0 -1.4 -0.0
2019-Aug-12 08:00S 53°06' W 070°54'0 0.0 280 / 51028.1 -1.3 -0.0
2019-Aug-12 07:00S 53°06' W 070°54'0 0.0 270 / 71028.0 -0.6 -0.0
2019-Aug-12 06:00S 53°06' W 070°54'0 0.0 270 / 71027.8 -0.6 -0.0
2019-Aug-12 05:00S 53°06' W 070°54'0 0.0 270 / 91027.6 0.1 -0.0
2019-Aug-12 04:00S 53°06' W 070°54'0 0.0 270 / 91027.4 -0.0 -0.0
2019-Aug-12 03:00S 53°06' W 070°54'0 0.0 270 / 91027.1 -0.0 -0.0
2019-Aug-12 02:00S 53°06' W 070°54'0 0.0 270 / 81026.6 -0.0 -0.0
2019-Aug-12 01:00S 53°06' W 070°54'0 0.0 260 / 61026.2 0.2 -0.0
2019-Aug-12 00:00S 53°06' W 070°54'0 0.0 260 / 61025.7 0.4 -0.0
2019-Aug-11 23:00S 53°06' W 070°54'0 0.0 240 / 71025.0 1.0 -0.0
2019-Aug-11 22:00S 53°06' W 070°54'0 0.0 230 / 71024.3 1.7 -0.0
2019-Aug-11 21:00S 53°06' W 070°54'0 0.0 200 / 171023.3 2.9 -0.0
2019-Aug-11 20:00S 53°06' W 070°54'0 0.0 200 / 171022.5 3.3 -0.0
2019-Aug-11 19:00S 53°06' W 070°54'0 0.0 190 / 161021.8 3.4 -0.0
2019-Aug-11 18:00S 53°06' W 070°54'0 0.0 190 / 181021.4 3.7 -0.0
2019-Aug-11 17:00S 53°06' W 070°54'0 0.0 200 / 161021.0 3.8 -0.0
2019-Aug-11 16:00S 53°06' W 070°54'0 0.0 210 / 141020.2 3.1 -0.0
2019-Aug-11 15:00S 53°06' W 070°54'0 0.0 210 / 131019.5 2.5 -0.0
2019-Aug-11 14:00S 53°06' W 070°54'0 0.0 230 / 71019.0 0.6 -0.0
2019-Aug-11 13:00S 53°06' W 070°54'0 0.0 240 / 71018.2 -0.0 -0.0
2019-Aug-11 12:00S 53°06' W 070°54'0 0.0 250 / 71017.5 -0.1 -0.0
2019-Aug-11 11:00S 53°06' W 070°54'0 0.0 250 / 81016.8 -0.4 -0.0
2019-Aug-11 10:00S 53°06' W 070°54'0 0.0 250 / 81016.2 -0.4 -0.0
2019-Aug-11 09:00S 53°06' W 070°54'0 0.0 250 / 81015.2 -0.2 -0.0
2019-Aug-11 08:00S 53°06' W 070°54'0 0.0 240 / 91014.2 0.1 -0.0
2019-Aug-11 07:00S 53°06' W 070°54'0 0.0 210 / 171013.0 1.0 -0.0
2019-Aug-11 06:00S 53°06' W 070°54'0 0.0 220 / 151011.9 0.7 -0.0
2019-Aug-11 05:00S 53°06' W 070°54'0 0.0 210 / 141011.0 1.6 -0.0
2019-Aug-11 04:00S 53°06' W 070°54'0 0.0 240 / 81009.8 1.4 -0.0
2019-Aug-11 03:00S 53°06' W 070°54'0 0.0 260 / 81009.0 1.3 -0.0
2019-Aug-11 02:00S 53°06' W 070°54'0 0.0 270 / 101008.7 1.0 -0.0
2019-Aug-11 01:00S 53°06' W 070°54'0 0.0 270 / 131008.7 0.7 -0.0
2019-Aug-11 00:00S 53°06' W 070°54'0 0.0 260 / 91008.7 0.6 -0.0
2019-Aug-10 23:00S 53°06' W 070°54'0 0.0 260 / 71008.6 0.6 -0.0
2019-Aug-10 22:00S 53°06' W 070°54'0 0.0 260 / 61008.6 1.0 -0.0
2019-Aug-10 21:00S 53°06' W 070°54'0 0.0 250 / 81008.1 1.3 -0.0
2019-Aug-10 20:00S 53°06' W 070°54'0 0.0 250 / 101007.6 1.6 -0.0
2019-Aug-10 19:00S 53°06' W 070°54'0 0.0 250 / 121007.3 1.2 -0.0
2019-Aug-10 18:00S 53°06' W 070°54'0 0.0 240 / 141006.9 1.7 -0.0
2019-Aug-10 17:00S 53°06' W 070°54'0 0.0 230 / 151006.7 1.9 -0.0
2019-Aug-10 16:00S 53°06' W 070°54'0 0.0 220 / 151006.6 2.1 -0.0
2019-Aug-10 15:00S 53°06' W 070°54'0 0.0 220 / 171006.0 1.5 -0.0
2019-Aug-10 14:00S 53°06' W 070°54'0 0.0 210 / 121005.7 1.0 -0.0
2019-Aug-10 13:00S 53°06' W 070°54'0 0.0 220 / 121005.0 -0.0 -0.0
2019-Aug-10 12:00S 53°06' W 070°54'0 0.0 230 / 191003.7 0.1 -0.0
2019-Aug-10 11:00S 53°06' W 070°54'0 0.0 220 / 201002.8 0.2 -0.0
2019-Aug-10 10:00S 53°06' W 070°54'0 0.0 220 / 181001.7 0.7 -0.0
2019-Aug-10 09:00S 53°06' W 070°54'0 0.0 220 / 161001.1 1.2 -0.0
2019-Aug-10 08:00S 53°06' W 070°54'0 0.0 210 / 141000.6 2.0 -0.0
2019-Aug-10 07:00S 53°06' W 070°54'0 0.0 200 / 181000.5 2.4 -0.0
2019-Aug-10 06:00S 53°06' W 070°54'0 0.0 210 / 121000.6 2.8 -0.0
2019-Aug-10 05:00S 53°06' W 070°54'0 0.0 230 / 111000.0 2.8 -0.0
2019-Aug-10 04:00S 53°06' W 070°54'0 0.0 240 / 13999.8 2.9 -0.0
2019-Aug-10 03:00S 53°06' W 070°54'0 0.0 240 / 14999.4 3.2 -0.0
2019-Aug-10 02:00S 53°06' W 070°54'0 0.0 240 / 11999.1 3.4 -0.0
2019-Aug-10 01:00S 53°06' W 070°54'0 0.0 240 / 13998.8 3.8 -0.0
2019-Aug-10 00:00S 53°06' W 070°54'0 0.0 240 / 15998.6 4.0 -0.0
2019-Aug-09 23:00S 53°06' W 070°54'0 0.0 250 / 12998.5 4.3 -0.0
2019-Aug-09 22:00S 53°06' W 070°54'0 0.0 250 / 11998.4 5.0 -0.0
2019-Aug-09 21:00S 53°06' W 070°54'0 0.0 240 / 9998.2 6.1 -0.0
2019-Aug-09 20:00S 53°06' W 070°54'0 0.0 260 / 7997.9 6.7 -0.0
2019-Aug-09 19:00S 53°06' W 070°54'0 0.0 240 / 13997.1 6.8 -0.0
2019-Aug-09 18:00S 53°06' W 070°54'0 0.0 240 / 16996.9 6.8 -0.0
2019-Aug-09 17:00S 53°06' W 070°54'0 0.0 250 / 15996.8 6.9 -0.0
2019-Aug-09 16:00S 53°06' W 070°54'0 0.0 260 / 15996.9 6.7 -0.0
2019-Aug-09 15:00S 53°06' W 070°54'0 0.0 270 / 10996.7 6.7 -0.0
2019-Aug-09 14:00S 53°06' W 070°54'0 0.0 260 / 4996.3 6.9 -0.0
2019-Aug-09 13:00S 53°06' W 070°54'0 0.0 210 / 2995.3 5.6 -0.0
2019-Aug-09 12:00S 53°06' W 070°54'0 0.0 250 / 7994.4 5.5 -0.0
2019-Aug-09 11:00S 53°06' W 070°54'0 0.0 270 / 8993.8 5.4 -0.0
2019-Aug-09 10:00S 53°06' W 070°54'0 0.0 260 / 10993.4 5.8 -0.0
2019-Aug-09 09:00S 53°06' W 070°54'0 0.0 260 / 16992.3 6.4 -0.0
2019-Aug-09 08:00S 53°06' W 070°54'0 0.0 270 / 21991.6 7.0 -0.0
2019-Aug-09 07:00S 53°06' W 070°54'0 0.0 350 / 8992.1 6.0 -0.0
2019-Aug-09 06:00S 53°06' W 070°54'0 0.0 340 / 9992.2 5.4 -0.0
2019-Aug-09 05:00S 53°06' W 070°54'0 0.0 330 / 15992.8 5.7 -0.0
2019-Aug-09 04:00S 53°06' W 070°54'0 0.0 300 / 19992.7 5.8 -0.0
2019-Aug-09 03:00S 53°06' W 070°54'0 0.0 290 / 24992.2 5.8 -0.0
2019-Aug-09 02:00S 53°06' W 070°54'0 0.0 290 / 36990.8 6.2 -0.0
2019-Aug-09 01:00S 53°06' W 070°54'0 0.0 290 / 38991.1 6.2 -0.0
2019-Aug-09 00:00S 53°06' W 070°54'0 0.0 290 / 38992.6 6.7 -0.0
2019-Aug-08 23:00S 53°06' W 070°54'0 0.0 280 / 31994.3 7.2 -0.0
2019-Aug-08 22:00S 53°06' W 070°54'0 0.0 260 / 8997.2 7.2 -0.0
2019-Aug-08 21:00S 53°06' W 070°54'0 0.0 060 / 4998.9 7.7 -0.0
2019-Aug-08 20:00S 53°06' W 070°54'0 0.0 280 / 61000.1 7.5 -0.0
2019-Aug-08 19:00S 53°06' W 070°54'0 0.0 290 / 141001.4 7.1 -0.0
2019-Aug-08 18:00S 53°06' W 070°54'0 0.0 310 / 121003.4 7.1 -0.0
2019-Aug-08 17:00S 53°06' W 070°54'0 0.0 350 / 121005.5 6.6 -0.0
2019-Aug-08 16:00S 53°06' W 070°54'0 0.0 330 / 111007.2 6.1 -0.0
2019-Aug-08 15:00S 53°06' W 070°54'0 0.0 010 / 101008.7 5.5 -0.0
2019-Aug-08 14:00S 53°06' W 070°54'0 0.0 320 / 131009.5 5.2 -0.0
2019-Aug-08 13:00S 53°06' W 070°54'0 0.0 320 / 151010.1 4.9 -0.0
2019-Aug-08 12:00S 53°06' W 070°54'0 0.0 310 / 121010.8 4.9 -0.0
2019-Aug-08 11:00S 53°06' W 070°54'0 0.0 290 / 171011.0 5.3 -0.0
2019-Aug-08 10:00S 53°06' W 070°54'0 0.0 280 / 251010.6 6.0 -0.0
2019-Aug-08 09:00S 53°06' W 070°54'0 0.0 270 / 191011.1 5.7 -0.0
2019-Aug-08 08:00S 53°06' W 070°54'0 0.0 260 / 61012.1 5.0 -0.0
2019-Aug-08 07:00S 53°06' W 070°54'0 0.0 010 / 51012.9 4.8 -0.0
2019-Aug-08 06:00S 53°06' W 070°54'0 0.0 020 / 61013.3 4.4 -0.0
2019-Aug-08 05:00S 53°06' W 070°54'0 0.0 260 / 111013.0 4.1 -0.0
2019-Aug-08 04:00S 53°06' W 070°54'0 0.0 270 / 211012.2 4.0 -0.0
2019-Aug-08 03:00S 53°06' W 070°54'0 0.0 260 / 141012.9 3.9 -0.0
2019-Aug-08 02:00S 53°06' W 070°54'0 0.0 260 / 111012.6 3.7 -0.0
2019-Aug-08 01:00S 53°06' W 070°54'0 0.0 250 / 101011.9 3.7 -0.0
2019-Aug-08 00:00S 53°06' W 070°54'0 0.0 250 / 141010.9 3.7 -0.0
2019-Aug-07 23:00S 53°06' W 070°54'0 0.0 260 / 151010.0 3.5 -0.0
2019-Aug-07 22:00S 53°06' W 070°54'0 0.0 260 / 161009.3 3.4 -0.0
2019-Aug-07 21:00S 53°06' W 070°54'0 0.0 260 / 211008.3 3.5 -0.0
2019-Aug-07 20:00S 53°06' W 070°54'0 0.0 260 / 221007.2 3.5 -0.0
2019-Aug-07 19:00S 53°06' W 070°54'0 0.0 260 / 231006.3 3.5 -0.0
2019-Aug-07 18:00S 53°06' W 070°54'0 0.0 260 / 251005.6 3.6 -0.0
2019-Aug-07 17:00S 53°06' W 070°54'0 0.0 260 / 231004.9 3.8 -0.0
2019-Aug-07 16:00S 53°06' W 070°54'0 0.0 260 / 221004.3 4.1 -0.0
2019-Aug-07 15:00S 53°06' W 070°54'0 0.0 260 / 211003.8 4.2 -0.0
2019-Aug-07 14:00S 53°06' W 070°54'0 0.0 260 / 161003.8 3.6 -0.0
2019-Aug-07 13:00S 53°06' W 070°54'0 0.0 260 / 181003.4 3.0 -0.0
2019-Aug-07 12:00S 53°06' W 070°54'0 0.0 260 / 171003.1 2.7 -0.0
2019-Aug-07 11:00S 53°06' W 070°54'0 0.0 260 / 161003.3 2.4 -0.0
2019-Aug-07 10:00S 53°06' W 070°54'0 0.0 260 / 121003.6 2.3 -0.0
2019-Aug-07 09:00S 53°06' W 070°54'0 0.0 250 / 131003.6 2.3 -0.0
2019-Aug-07 08:00S 53°06' W 070°54'0 0.0 260 / 161003.4 2.1 -0.0
2019-Aug-07 07:00S 53°06' W 070°54'0 0.0 260 / 101003.7 1.8 -0.0
2019-Aug-07 06:00S 53°06' W 070°54'0 0.0 260 / 121003.4 1.7 -0.0
2019-Aug-07 05:00S 53°06' W 070°54'0 0.0 260 / 131002.7 1.5 -0.0
2019-Aug-07 03:00S 53°06' W 070°54'0 0.0 260 / 101001.4 0.8 -0.0
2019-Aug-07 02:00S 53°06' W 070°54'0 0.0 260 / 131000.5 0.8 -0.0
2019-Aug-07 01:00S 53°06' W 070°54'0 0.0 260 / 11999.5 0.3 -0.0
2019-Aug-07 00:00S 53°06' W 070°54'0 0.0 270 / 16998.2 0.3 -0.0
2019-Aug-06 23:00S 53°06' W 070°54'0 0.0 260 / 17996.8 0.6 -0.0
2019-Aug-06 22:00S 53°06' W 070°54'0 0.0 260 / 13995.1 0.8 -0.0
2019-Aug-06 21:00S 53°06' W 070°54'0 0.0 250 / 14993.4 1.1 -0.0
2019-Aug-06 20:00S 53°06' W 070°54'0 0.0 270 / 18991.2 1.2 -0.0
2019-Aug-06 19:00S 53°06' W 070°54'0 0.0 270 / 16990.3 1.2 -0.0
2019-Aug-06 18:00S 53°06' W 070°54'0 0.0 280 / 17989.7 1.1 -0.0
2019-Aug-06 17:00S 53°06' W 070°54'0 0.0 280 / 17989.8 0.6 -0.0
2019-Aug-06 16:00S 53°06' W 070°54'0 0.0 290 / 23989.4 1.0 -0.0
2019-Aug-06 15:00S 53°06' W 070°54'0 0.0 280 / 23989.2 1.4 -0.0
2019-Aug-06 14:00S 53°06' W 070°54'0 0.0 280 / 23989.4 0.9 -0.0
2019-Aug-06 13:00S 53°06' W 070°54'0 0.0 280 / 24989.4 0.5 -0.0
2019-Aug-06 12:00S 53°06' W 070°54'0 0.0 290 / 14989.7 -0.0 -0.0
2019-Aug-06 11:00S 53°06' W 070°54'0 0.0 280 / 18989.3 0.3 -0.0
2019-Aug-06 03:00S 53°06' W 070°54'0 0.0 270 / 13986.1 1.7 -0.0
2019-Aug-06 02:00S 53°06' W 070°54'0 0.0 270 / 13985.5 1.8 -0.0
2019-Aug-06 01:00S 53°06' W 070°54'0 0.0 280 / 20985.0 2.1 -0.0
2019-Aug-06 00:00S 53°06' W 070°54'0 0.0 280 / 20984.6 2.5 -0.0
2019-Aug-05 23:00S 53°06' W 070°54'   290 / 16984.6 2.6 -0.0

Dump ship's entire track history